createdAt,value
2023-11-24T00:01:39.657Z,10.71
2023-11-24T00:04:06.487Z,10.69
2023-11-24T00:06:33.619Z,10.63
2023-11-24T00:09:00.138Z,10.63
2023-11-24T00:11:27.448Z,10.61
2023-11-24T00:13:53.851Z,10.57
2023-11-24T00:16:20.511Z,10.58
2023-11-24T00:18:46.947Z,10.55
2023-11-24T00:21:13.877Z,10.56
2023-11-24T00:23:40.383Z,10.59
2023-11-24T00:26:07.467Z,10.59
2023-11-24T00:28:35.064Z,10.59
2023-11-24T00:31:03.565Z,10.51
2023-11-24T00:33:30.458Z,10.54
2023-11-24T00:35:56.876Z,10.52
2023-11-24T00:38:23.534Z,10.48
2023-11-24T00:40:51.130Z,10.44
2023-11-24T00:43:17.587Z,10.45
2023-11-24T00:45:44.100Z,10.44
2023-11-24T00:48:11.376Z,10.40
2023-11-24T00:50:37.864Z,10.39
2023-11-24T00:53:04.913Z,10.40
2023-11-24T00:55:32.210Z,10.40
2023-11-24T00:57:59.686Z,10.43
2023-11-24T01:00:26.141Z,10.40
2023-11-24T01:02:52.587Z,10.36
2023-11-24T01:05:20.121Z,10.37
2023-11-24T01:07:47.671Z,10.36
2023-11-24T01:10:14.066Z,10.32
2023-11-24T01:12:41.389Z,10.33
2023-11-24T01:15:09.666Z,10.30
2023-11-24T01:17:37.278Z,10.31
2023-11-24T01:20:05.189Z,10.31
2023-11-24T01:22:31.678Z,10.31
2023-11-24T01:24:58.233Z,10.33
2023-11-24T01:27:24.788Z,10.32
2023-11-24T01:29:51.226Z,10.34
2023-11-24T01:32:17.746Z,10.38
2023-11-24T01:34:44.271Z,10.35
2023-11-24T01:37:11.057Z,10.31
2023-11-24T01:39:38.217Z,10.30
2023-11-24T01:42:05.809Z,10.30
2023-11-24T01:44:32.688Z,10.25
2023-11-24T01:46:59.255Z,10.23
2023-11-24T01:49:27.208Z,10.23
2023-11-24T01:51:56.564Z,10.12
2023-11-24T01:54:27.130Z,9.91
2023-11-24T01:56:58.696Z,9.77
2023-11-24T01:59:25.178Z,9.64
2023-11-24T02:01:51.978Z,9.57
2023-11-24T02:04:18.536Z,9.55
2023-11-24T02:06:45.587Z,9.47
2023-11-24T02:09:12.253Z,9.42
2023-11-24T02:11:38.705Z,9.35
2023-11-24T02:14:07.510Z,9.31
2023-11-24T02:16:34.975Z,9.31
2023-11-24T02:19:01.519Z,9.25
2023-11-24T02:21:28.320Z,9.29
2023-11-24T02:23:54.770Z,9.26
2023-11-24T02:26:21.228Z,9.27
2023-11-24T02:28:47.573Z,9.25
2023-11-24T02:31:14.600Z,9.25
2023-11-24T02:33:42.105Z,9.24
2023-11-24T02:36:18.201Z,9.19
2023-11-24T02:38:51.158Z,9.17
2023-11-24T02:41:18.038Z,9.14
2023-11-24T02:43:45.738Z,9.09
2023-11-24T02:46:13.760Z,9.07
2023-11-24T02:48:42.287Z,9.08
2023-11-24T02:51:10.048Z,9.10
2023-11-24T02:53:40.412Z,9.06
2023-11-24T02:56:08.860Z,9.10
2023-11-24T02:58:35.563Z,9.15
2023-11-24T03:01:02.443Z,9.15
2023-11-24T03:03:31.687Z,9.19
2023-11-24T03:06:01.843Z,9.18
2023-11-24T03:08:28.303Z,9.14
2023-11-24T03:10:55.114Z,9.18
2023-11-24T03:13:21.750Z,9.12
2023-11-24T03:15:48.170Z,9.09
2023-11-24T03:18:14.589Z,9.14
2023-11-24T03:20:42.100Z,9.13
2023-11-24T03:23:08.692Z,9.08
2023-11-24T03:25:35.591Z,9.07
2023-11-24T03:28:02.398Z,9.04
2023-11-24T03:30:28.821Z,9.02
2023-11-24T03:32:55.233Z,9.06
2023-11-24T03:35:21.981Z,9.08
2023-11-24T03:37:48.336Z,9.10
2023-11-24T03:40:15.395Z,9.03
2023-11-24T03:42:41.829Z,9.03
2023-11-24T03:45:08.553Z,9.01
2023-11-24T03:47:34.998Z,8.95
2023-11-24T03:50:01.502Z,8.96
2023-11-24T03:52:28.553Z,8.99
2023-11-24T03:54:54.999Z,8.99
2023-11-24T03:57:21.600Z,8.96
2023-11-24T03:59:48.036Z,8.96
2023-11-24T04:02:14.620Z,8.90
2023-11-24T04:04:41.076Z,8.86
2023-11-24T04:07:07.476Z,8.83
2023-11-24T04:09:33.961Z,8.82
2023-11-24T04:12:00.518Z,8.86
2023-11-24T04:14:27.350Z,8.83
2023-11-24T04:16:53.915Z,8.82
2023-11-24T04:19:20.434Z,8.83
2023-11-24T04:21:46.856Z,8.87
2023-11-24T04:24:13.330Z,8.91
2023-11-24T04:26:39.793Z,8.87
2023-11-24T04:29:06.936Z,8.86
2023-11-24T04:31:33.519Z,8.86
2023-11-24T04:34:01.121Z,8.83
2023-11-24T04:36:29.619Z,8.88
2023-11-24T04:38:56.062Z,8.84
2023-11-24T04:41:22.409Z,8.81
2023-11-24T04:43:48.762Z,8.81
2023-11-24T04:46:15.425Z,8.76
2023-11-24T04:48:42.940Z,8.78
2023-11-24T04:51:09.484Z,8.78
2023-11-24T04:53:36.844Z,8.77
2023-11-24T04:56:06.497Z,8.72
2023-11-24T04:58:32.853Z,8.74
2023-11-24T05:00:59.303Z,8.74
2023-11-24T05:03:25.741Z,8.71
2023-11-24T05:05:52.161Z,8.72
2023-11-24T05:08:18.612Z,8.71
2023-11-24T05:10:44.936Z,8.71
2023-11-24T05:13:11.286Z,8.72
2023-11-24T05:15:38.224Z,8.65
2023-11-24T05:18:05.290Z,8.67
2023-11-24T05:20:31.761Z,8.64
2023-11-24T05:22:58.202Z,8.58
2023-11-24T05:25:24.676Z,8.56
2023-11-24T05:27:51.048Z,8.59
2023-11-24T05:30:17.687Z,8.57
2023-11-24T05:32:45.614Z,8.54
2023-11-24T05:35:12.126Z,8.59
2023-11-24T05:37:38.662Z,8.59
2023-11-24T05:40:08.810Z,8.59
2023-11-24T05:42:35.198Z,8.57
2023-11-24T05:45:03.164Z,8.58
2023-11-24T05:47:30.433Z,8.57
2023-11-24T05:49:57.212Z,8.60
2023-11-24T05:52:23.702Z,8.61
2023-11-24T05:54:50.096Z,8.66
2023-11-24T05:57:16.551Z,8.60
2023-11-24T05:59:43.121Z,8.50
2023-11-24T06:02:10.718Z,8.42
2023-11-24T06:04:37.249Z,8.43
2023-11-24T06:07:04.308Z,8.39
2023-11-24T06:09:30.971Z,8.40
2023-11-24T06:11:57.539Z,8.39
2023-11-24T06:14:23.985Z,8.37
2023-11-24T06:16:50.866Z,8.32
2023-11-24T06:19:17.310Z,8.26
2023-11-24T06:21:43.853Z,8.28
2023-11-24T06:24:10.328Z,8.24
2023-11-24T06:26:38.801Z,8.22
2023-11-24T06:29:05.937Z,8.24
2023-11-24T06:31:32.583Z,8.24
2023-11-24T06:34:00.199Z,8.27
2023-11-24T06:36:26.817Z,8.46
2023-11-24T06:38:53.180Z,8.72
2023-11-24T06:41:19.759Z,8.67
2023-11-24T06:43:46.407Z,8.59
2023-11-24T06:46:13.491Z,8.52
2023-11-24T06:48:40.054Z,8.45
2023-11-24T06:51:06.708Z,8.38
2023-11-24T06:53:33.150Z,8.32
2023-11-24T06:55:59.533Z,8.33
2023-11-24T06:58:26.374Z,8.39
2023-11-24T07:00:52.925Z,8.41
2023-11-24T07:03:19.431Z,8.39
2023-11-24T07:05:48.367Z,8.35
2023-11-24T07:08:17.562Z,8.38
2023-11-24T07:10:44.883Z,8.38
2023-11-24T07:13:11.308Z,8.41
2023-11-24T07:15:37.739Z,8.35
2023-11-24T07:18:04.585Z,8.16
2023-11-24T07:20:31.082Z,7.99
2023-11-24T07:22:57.436Z,7.79
2023-11-24T07:25:23.892Z,7.69
2023-11-24T07:27:51.160Z,7.47
2023-11-24T07:30:19.695Z,7.36
2023-11-24T07:32:46.080Z,7.26
2023-11-24T07:35:14.973Z,7.26
2023-11-24T07:37:41.528Z,7.23
2023-11-24T07:40:12.217Z,7.27
2023-11-24T07:42:38.746Z,7.29
2023-11-24T07:45:05.623Z,7.33
2023-11-24T07:47:32.048Z,7.32
2023-11-24T07:49:58.916Z,7.31
2023-11-24T07:52:27.222Z,7.38
2023-11-24T07:54:54.651Z,7.41
2023-11-24T07:57:21.091Z,7.40
2023-11-24T07:59:47.573Z,7.48
2023-11-24T08:02:13.960Z,7.46
2023-11-24T08:04:41.543Z,7.51
2023-11-24T08:07:08.102Z,7.43
2023-11-24T08:09:34.575Z,7.36
2023-11-24T08:12:00.987Z,7.41
2023-11-24T08:14:27.356Z,7.43
2023-11-24T08:16:53.858Z,7.40
2023-11-24T08:19:23.829Z,7.38
2023-11-24T08:21:50.401Z,7.33
2023-11-24T08:24:17.375Z,7.33
2023-11-24T08:26:44.063Z,7.42
2023-11-24T08:29:10.721Z,7.40
2023-11-24T08:31:37.125Z,7.41
2023-11-24T08:34:05.139Z,7.42
2023-11-24T08:36:32.819Z,7.45
2023-11-24T08:38:59.266Z,7.52
2023-11-24T08:41:31.218Z,7.54
2023-11-24T08:44:06.017Z,7.72
2023-11-24T08:46:32.678Z,7.79
2023-11-24T08:48:59.204Z,7.88
2023-11-24T08:51:26.557Z,7.90
2023-11-24T08:53:52.981Z,7.83
2023-11-24T08:56:19.359Z,7.72
2023-11-24T08:58:45.741Z,7.67
2023-11-24T09:01:15.482Z,7.69
2023-11-24T09:03:42.203Z,7.69
2023-11-24T09:06:08.746Z,7.83
2023-11-24T09:08:35.148Z,7.93
2023-11-24T09:11:02.598Z,8.14
2023-11-24T09:13:28.998Z,8.14
2023-11-24T09:15:55.551Z,8.13
2023-11-24T09:18:24.946Z,8.18
2023-11-24T09:20:51.525Z,8.34
2023-11-24T09:23:18.379Z,8.45
2023-11-24T09:25:45.006Z,8.60
2023-11-24T09:28:12.002Z,8.71
2023-11-24T09:30:39.772Z,8.71
2023-11-24T09:33:07.699Z,8.63
2023-11-24T09:35:34.235Z,8.59
2023-11-24T09:38:00.677Z,8.50
2023-11-24T09:40:27.242Z,8.37
2023-11-24T09:42:53.843Z,8.24
2023-11-24T09:45:23.224Z,8.28
2023-11-24T09:47:51.720Z,8.35
2023-11-24T09:50:24.994Z,8.29
2023-11-24T09:52:55.462Z,8.27
2023-11-24T09:55:25.002Z,8.27
2023-11-24T09:57:53.015Z,8.32
2023-11-24T10:00:20.901Z,8.34
2023-11-24T10:02:48.931Z,8.24
2023-11-24T10:05:22.340Z,8.21
2023-11-24T10:07:53.304Z,8.26
2023-11-24T10:10:23.350Z,8.21
2023-11-24T10:13:01.273Z,8.20
2023-11-24T10:15:28.784Z,8.15
2023-11-24T10:17:55.570Z,8.06
2023-11-24T10:20:29.478Z,7.93
2023-11-24T10:22:57.115Z,7.69
2023-11-24T10:25:26.557Z,7.65
2023-11-24T10:28:00.877Z,7.70
2023-11-24T10:30:27.489Z,7.64
2023-11-24T10:32:54.282Z,7.63
2023-11-24T10:35:20.806Z,7.61
2023-11-24T10:37:47.935Z,7.49
2023-11-24T10:40:18.789Z,7.35
2023-11-24T10:42:52.280Z,7.27
2023-11-24T10:45:22.337Z,7.45
2023-11-24T10:48:07.111Z,7.70
2023-11-24T10:50:39.655Z,7.77
2023-11-24T10:53:27.756Z,7.69
2023-11-24T10:55:55.547Z,7.61
2023-11-24T10:58:23.829Z,7.51
2023-11-24T11:00:50.800Z,7.50
2023-11-24T11:03:17.749Z,7.47
2023-11-24T11:05:54.078Z,7.49
2023-11-24T11:08:35.842Z,7.64
2023-11-24T11:11:13.263Z,7.67
2023-11-24T11:13:42.282Z,7.68
2023-11-24T11:16:11.936Z,7.64
2023-11-24T11:18:38.393Z,7.62
2023-11-24T11:21:12.392Z,7.64
2023-11-24T11:23:39.888Z,7.72
2023-11-24T11:26:08.895Z,7.83
2023-11-24T11:28:36.492Z,7.83
2023-11-24T11:31:22.229Z,7.81
2023-11-24T11:33:49.825Z,7.84
2023-11-24T11:36:16.921Z,7.81
2023-11-24T11:38:46.476Z,7.88
2023-11-24T11:41:33.512Z,7.93
2023-11-24T11:43:59.899Z,7.97
2023-11-24T11:46:26.369Z,7.93
2023-11-24T11:48:56.192Z,8.03
2023-11-24T11:51:24.680Z,8.14
2023-11-24T11:53:52.044Z,8.19
2023-11-24T11:56:19.712Z,8.02
2023-11-24T11:58:46.105Z,8.03
2023-11-24T12:01:14.872Z,7.93
2023-11-24T12:03:41.491Z,7.82
2023-11-24T12:06:08.333Z,7.86
2023-11-24T12:08:35.096Z,7.79
2023-11-24T12:11:01.553Z,7.75
2023-11-24T12:13:28.189Z,7.69
2023-11-24T12:15:55.035Z,7.60
2023-11-24T12:18:21.773Z,7.51
2023-11-24T12:20:51.961Z,7.47
2023-11-24T12:23:22.082Z,7.44
2023-11-24T12:25:48.691Z,7.47
2023-11-24T12:28:15.233Z,7.46
2023-11-24T12:30:43.759Z,7.47
2023-11-24T12:33:15.394Z,7.43
2023-11-24T12:35:56.404Z,7.32
2023-11-24T12:38:23.638Z,7.26
2023-11-24T12:40:52.477Z,7.38
2023-11-24T12:43:22.813Z,7.31
2023-11-24T12:45:51.058Z,7.44
2023-11-24T12:48:25.523Z,7.61
2023-11-24T12:50:59.640Z,7.75
2023-11-24T12:53:26.168Z,7.87
2023-11-24T12:55:52.833Z,7.91
2023-11-24T12:58:19.567Z,7.94
2023-11-24T13:00:47.581Z,8.08
2023-11-24T13:03:14.385Z,8.10
2023-11-24T13:05:40.928Z,8.16
2023-11-24T13:08:07.927Z,8.20
2023-11-24T13:10:35.655Z,8.28
2023-11-24T13:13:02.903Z,8.29
2023-11-24T13:15:29.616Z,8.43
2023-11-24T13:17:57.022Z,8.45
2023-11-24T13:20:29.224Z,8.45
2023-11-24T13:22:55.736Z,8.39
2023-11-24T13:25:30.302Z,8.50
2023-11-24T13:27:57.214Z,8.41
2023-11-24T13:30:23.707Z,8.45
2023-11-24T13:32:50.937Z,8.50
2023-11-24T13:35:17.840Z,8.60
2023-11-24T13:37:46.046Z,8.57
2023-11-24T13:40:18.386Z,8.73
2023-11-24T13:42:45.492Z,8.91
2023-11-24T13:45:14.737Z,9.27
2023-11-24T13:47:42.152Z,9.42
2023-11-24T13:50:10.398Z,9.46
2023-11-24T13:52:36.884Z,9.51
2023-11-24T13:55:06.806Z,9.59
2023-11-24T13:57:33.456Z,9.56
2023-11-24T13:59:59.980Z,9.22
2023-11-24T14:02:26.750Z,9.30
2023-11-24T14:04:55.445Z,9.41
2023-11-24T14:07:22.118Z,9.66
2023-11-24T14:09:49.763Z,9.68
2023-11-24T14:12:16.506Z,9.75
2023-11-24T14:14:44.025Z,9.96
2023-11-24T14:17:10.591Z,10.03
2023-11-24T14:19:36.966Z,10.09
2023-11-24T14:22:05.794Z,9.99
2023-11-24T14:24:33.713Z,9.98
2023-11-24T14:27:00.181Z,9.97
2023-11-24T14:29:28.889Z,9.75
2023-11-24T14:31:55.392Z,9.59
2023-11-24T14:34:21.818Z,9.53
2023-11-24T14:36:49.401Z,9.37
2023-11-24T14:39:27.126Z,8.89
2023-11-24T14:41:57.077Z,8.44
2023-11-24T14:44:24.583Z,7.93
2023-11-24T14:46:52.334Z,7.68
2023-11-24T14:49:18.975Z,7.57
2023-11-24T14:51:49.617Z,7.42
2023-11-24T14:54:17.239Z,7.33
2023-11-24T14:56:44.632Z,7.04
2023-11-24T14:59:11.929Z,7.01
2023-11-24T15:01:39.895Z,6.98
2023-11-24T15:04:17.816Z,6.86
2023-11-24T15:06:50.844Z,6.91
2023-11-24T15:09:17.422Z,6.78
2023-11-24T15:11:44.954Z,6.61
2023-11-24T15:14:15.338Z,6.48
2023-11-24T15:16:53.040Z,6.41
2023-11-24T15:19:22.134Z,6.30
2023-11-24T15:21:49.721Z,6.37
2023-11-24T15:24:16.121Z,6.32
2023-11-24T15:26:42.484Z,6.30
2023-11-24T15:29:10.959Z,6.32
2023-11-24T15:31:40.295Z,6.35
2023-11-24T15:34:06.957Z,6.35
2023-11-24T15:36:35.164Z,6.40
2023-11-24T15:39:02.666Z,6.45
2023-11-24T15:41:39.010Z,6.47
2023-11-24T15:44:07.876Z,6.52
2023-11-24T15:46:39.684Z,6.50
2023-11-24T15:49:16.686Z,6.49
2023-11-24T15:51:46.730Z,6.45
2023-11-24T15:54:14.353Z,6.41
2023-11-24T15:56:40.967Z,6.39
2023-11-24T15:59:23.563Z,6.36
2023-11-24T16:01:52.664Z,6.36
2023-11-24T16:04:21.654Z,6.29
2023-11-24T16:06:55.152Z,6.28
2023-11-24T16:09:22.733Z,6.27
2023-11-24T16:12:09.348Z,6.31
2023-11-24T16:14:38.130Z,6.23
2023-11-24T16:17:05.465Z,6.20
2023-11-24T16:19:33.420Z,6.21
2023-11-24T16:22:00.655Z,6.20
2023-11-24T16:24:30.202Z,5.91
2023-11-24T16:26:56.940Z,5.92
2023-11-24T16:29:24.562Z,5.85
2023-11-24T16:31:52.460Z,5.75
2023-11-24T16:34:26.290Z,5.61
2023-11-24T16:36:56.355Z,4.86
2023-11-24T16:39:23.664Z,4.46
2023-11-24T16:41:53.352Z,3.99
2023-11-24T16:44:19.707Z,3.83
2023-11-24T16:46:57.596Z,3.86
2023-11-24T16:49:24.248Z,4.00
2023-11-24T16:51:50.812Z,4.07
2023-11-24T16:54:17.529Z,4.15
2023-11-24T16:56:44.115Z,4.21
2023-11-24T16:59:10.466Z,4.29
2023-11-24T17:01:36.949Z,4.33
2023-11-24T17:04:03.690Z,4.43
2023-11-24T17:06:30.116Z,4.41
2023-11-24T17:08:56.543Z,4.40
2023-11-24T17:11:22.993Z,4.42
2023-11-24T17:13:49.549Z,4.46
2023-11-24T17:16:16.336Z,4.48
2023-11-24T17:18:43.054Z,4.59
2023-11-24T17:21:09.613Z,4.60
2023-11-24T17:23:41.289Z,4.62
2023-11-24T17:26:10.813Z,4.64
2023-11-24T17:28:37.984Z,4.69
2023-11-24T17:31:09.312Z,4.72
2023-11-24T17:33:40.381Z,4.67
2023-11-24T17:36:09.046Z,4.65
2023-11-24T17:38:35.660Z,4.59
2023-11-24T17:41:02.580Z,4.57
2023-11-24T17:43:30.219Z,4.55
2023-11-24T17:45:57.267Z,4.62
2023-11-24T17:48:24.505Z,4.60
2023-11-24T17:50:51.076Z,4.63
2023-11-24T17:53:17.619Z,4.67
2023-11-24T17:55:44.071Z,4.77
2023-11-24T17:58:12.050Z,4.79
2023-11-24T18:00:40.894Z,4.82
2023-11-24T18:03:08.506Z,4.82
2023-11-24T18:05:34.989Z,4.79
2023-11-24T18:08:04.086Z,4.82
2023-11-24T18:10:30.599Z,4.83
2023-11-24T18:12:57.988Z,4.87
2023-11-24T18:15:24.644Z,4.88
2023-11-24T18:17:50.989Z,4.84
2023-11-24T18:20:18.699Z,4.88
2023-11-24T18:22:45.156Z,4.87
2023-11-24T18:25:13.087Z,4.91
2023-11-24T18:27:40.047Z,4.94
2023-11-24T18:30:07.942Z,4.96
2023-11-24T18:32:34.445Z,5.01
2023-11-24T18:35:01.214Z,5.04
2023-11-24T18:37:27.628Z,5.07
2023-11-24T18:39:54.100Z,5.15
2023-11-24T18:42:20.830Z,5.11
2023-11-24T18:44:47.375Z,5.10
2023-11-24T18:47:18.860Z,5.13
2023-11-24T18:49:46.530Z,5.12
2023-11-24T18:52:13.514Z,5.20
2023-11-24T18:54:43.221Z,5.23
2023-11-24T18:57:10.560Z,5.30
2023-11-24T18:59:39.908Z,5.29
2023-11-24T19:02:06.647Z,5.36
2023-11-24T19:04:33.204Z,5.42
2023-11-24T19:07:00.067Z,5.45
2023-11-24T19:09:26.525Z,5.45
2023-11-24T19:11:52.926Z,5.40
2023-11-24T19:14:19.359Z,5.45
2023-11-24T19:16:46.811Z,5.45
2023-11-24T19:19:14.324Z,5.43
2023-11-24T19:21:41.253Z,5.44
2023-11-24T19:24:08.438Z,5.44
2023-11-24T19:26:37.354Z,5.47
2023-11-24T19:29:08.704Z,5.47
2023-11-24T19:31:38.155Z,5.47
2023-11-24T19:34:06.959Z,5.50
2023-11-24T19:36:33.571Z,5.49
2023-11-24T19:39:01.098Z,5.53
2023-11-24T19:41:27.642Z,5.55
2023-11-24T19:43:54.117Z,5.55
2023-11-24T19:46:22.421Z,5.56
2023-11-24T19:48:51.651Z,5.50
2023-11-24T19:51:18.645Z,5.51
2023-11-24T19:53:47.483Z,5.45
2023-11-24T19:56:15.507Z,5.40
2023-11-24T19:58:43.485Z,5.33
2023-11-24T20:01:09.929Z,5.31
2023-11-24T20:03:38.998Z,5.32
2023-11-24T20:06:07.337Z,5.38
2023-11-24T20:08:34.166Z,5.37
2023-11-24T20:11:00.524Z,5.42
2023-11-24T20:13:26.951Z,5.43
2023-11-24T20:15:53.787Z,5.32
2023-11-24T20:18:20.211Z,5.12
2023-11-24T20:20:47.714Z,5.12
2023-11-24T20:23:14.436Z,5.12
2023-11-24T20:25:40.794Z,5.10
2023-11-24T20:28:10.073Z,5.10
2023-11-24T20:30:36.465Z,5.04
2023-11-24T20:33:02.983Z,5.04
2023-11-24T20:35:30.477Z,4.95
2023-11-24T20:37:57.176Z,4.94
2023-11-24T20:40:25.743Z,4.96
2023-11-24T20:42:52.140Z,4.96
2023-11-24T20:45:18.513Z,4.97
2023-11-24T20:47:44.907Z,4.97
2023-11-24T20:50:11.861Z,4.97
2023-11-24T20:52:38.362Z,5.00
2023-11-24T20:55:05.474Z,4.91
2023-11-24T20:57:31.963Z,4.88
2023-11-24T20:59:58.438Z,4.82
2023-11-24T21:02:24.898Z,4.79
2023-11-24T21:04:51.615Z,4.81
2023-11-24T21:07:20.008Z,4.84
2023-11-24T21:09:46.655Z,4.80
2023-11-24T21:12:13.607Z,4.83
2023-11-24T21:14:40.064Z,4.84
2023-11-24T21:17:06.589Z,4.85
2023-11-24T21:19:33.015Z,4.89
2023-11-24T21:21:59.363Z,4.91
2023-11-24T21:24:25.768Z,4.95
2023-11-24T21:26:52.191Z,4.97
2023-11-24T21:29:18.524Z,4.97
2023-11-24T21:31:45.211Z,4.96
2023-11-24T21:34:12.652Z,4.94
2023-11-24T21:36:39.506Z,4.88
2023-11-24T21:39:06.299Z,4.89
2023-11-24T21:41:34.618Z,4.91
2023-11-24T21:44:01.279Z,4.94
2023-11-24T21:46:27.832Z,4.93
2023-11-24T21:48:54.523Z,4.92
2023-11-24T21:51:20.895Z,4.93
2023-11-24T21:53:47.406Z,4.87
2023-11-24T21:56:14.906Z,4.88
2023-11-24T21:58:41.565Z,4.89
2023-11-24T22:01:08.001Z,4.95
2023-11-24T22:03:34.803Z,4.94
2023-11-24T22:06:01.315Z,4.96
2023-11-24T22:08:27.697Z,4.92
2023-11-24T22:10:54.305Z,4.92
2023-11-24T22:13:20.968Z,4.87
2023-11-24T22:15:50.350Z,4.86
2023-11-24T22:18:17.948Z,4.90
2023-11-24T22:20:44.373Z,4.89
2023-11-24T22:23:10.797Z,4.89
2023-11-24T22:25:37.957Z,4.87
2023-11-24T22:28:04.761Z,4.87
2023-11-24T22:30:31.215Z,4.91
2023-11-24T22:32:57.778Z,4.91
2023-11-24T22:35:24.948Z,4.88
2023-11-24T22:37:51.357Z,4.87
2023-11-24T22:40:18.901Z,4.85
2023-11-24T22:42:46.353Z,4.82
2023-11-24T22:45:13.023Z,4.84
2023-11-24T22:47:42.567Z,4.76
2023-11-24T22:50:11.021Z,4.74
2023-11-24T22:52:38.197Z,4.75
2023-11-24T22:55:06.530Z,4.74
2023-11-24T22:57:36.712Z,4.66
2023-11-24T23:00:06.831Z,4.69
2023-11-24T23:02:34.416Z,4.61
2023-11-24T23:05:00.861Z,4.60
2023-11-24T23:07:27.571Z,4.52
2023-11-24T23:09:53.992Z,4.51
2023-11-24T23:12:20.655Z,4.44
2023-11-24T23:14:47.091Z,4.42
2023-11-24T23:17:13.427Z,4.34
2023-11-24T23:19:41.669Z,4.35
2023-11-24T23:22:09.737Z,4.31
2023-11-24T23:24:36.731Z,4.29
2023-11-24T23:27:07.936Z,4.27
2023-11-24T23:29:34.865Z,4.31
2023-11-24T23:32:01.442Z,4.29
2023-11-24T23:34:28.224Z,4.30
2023-11-24T23:36:54.803Z,4.28
2023-11-24T23:39:21.174Z,4.26
2023-11-24T23:41:48.113Z,4.25
2023-11-24T23:44:15.909Z,4.18
2023-11-24T23:46:42.815Z,4.18
2023-11-24T23:49:09.952Z,4.24
2023-11-24T23:51:36.549Z,4.25
2023-11-24T23:54:04.099Z,4.17
2023-11-24T23:56:30.517Z,4.26
2023-11-24T23:58:56.981Z,4.24
